createdAt,value
2022-11-16T00:02:12.094Z,99480.69
2022-11-16T00:04:39.196Z,99484.25
2022-11-16T00:07:06.398Z,99482.25
2022-11-16T00:09:33.889Z,99477.41
2022-11-16T00:12:05.246Z,99473.16
2022-11-16T00:14:35.455Z,99470.00
2022-11-16T00:17:03.570Z,99484.22
2022-11-16T00:19:30.831Z,99476.84
2022-11-16T00:21:59.197Z,99480.53
2022-11-16T00:24:25.925Z,99472.56
2022-11-16T00:26:55.478Z,99471.47
2022-11-16T00:29:25.359Z,99489.34
2022-11-16T00:31:53.917Z,99487.34
2022-11-16T00:34:22.480Z,99488.94
2022-11-16T00:36:49.728Z,99496.91
2022-11-16T00:39:18.680Z,99490.78
2022-11-16T00:41:47.848Z,99492.75
2022-11-16T00:44:15.196Z,99482.84
2022-11-16T00:46:42.839Z,99487.34
2022-11-16T00:49:10.385Z,99485.53
2022-11-16T00:51:38.455Z,99487.34
2022-11-16T00:54:08.222Z,99501.75
2022-11-16T00:56:37.820Z,99501.00
2022-11-16T00:59:06.436Z,99505.31
2022-11-16T01:01:33.392Z,99486.53
2022-11-16T01:04:00.388Z,99486.81
2022-11-16T01:06:27.187Z,99478.56
2022-11-16T01:08:53.964Z,99460.63
2022-11-16T01:11:42.679Z,99460.06
2022-11-16T01:14:10.346Z,99452.41
2022-11-16T01:16:37.576Z,99461.22
2022-11-16T01:19:05.648Z,99450.97
2022-11-16T01:21:34.033Z,99453.53
2022-11-16T01:24:01.284Z,99451.69
2022-11-16T01:26:28.136Z,99453.53
2022-11-16T01:28:54.937Z,99465.75
2022-11-16T01:31:21.958Z,99467.75
2022-11-16T01:33:51.183Z,99470.31
2022-11-16T01:36:24.459Z,99461.91
2022-11-16T01:38:53.562Z,99449.56
2022-11-16T01:41:25.982Z,99445.31
2022-11-16T01:44:06.780Z,99441.59
2022-11-16T01:46:38.852Z,99436.47
2022-11-16T01:49:16.143Z,99440.75
2022-11-16T01:51:51.244Z,99448.00
2022-11-16T01:54:19.220Z,99439.72
2022-11-16T01:56:57.799Z,99430.22
2022-11-16T01:59:33.601Z,99433.06
2022-11-16T02:02:01.723Z,99434.50
2022-11-16T02:04:30.046Z,99433.94
2022-11-16T02:07:53.800Z,99428.06
2022-11-16T02:10:54.313Z,99428.78
2022-11-16T02:13:35.203Z,99424.78
2022-11-16T02:16:43.203Z,99430.19
2022-11-16T02:19:10.552Z,99421.81
2022-11-16T02:22:06.351Z,99426.22
2022-11-16T02:25:08.019Z,99415.28
2022-11-16T02:27:59.813Z,99413.13
2022-11-16T02:30:26.735Z,99409.41
2022-11-16T02:33:18.349Z,99405.72
2022-11-16T02:35:52.596Z,99406.56
2022-11-16T02:38:28.480Z,99412.81
2022-11-16T02:41:05.142Z,99409.41
2022-11-16T02:43:41.172Z,99417.66
2022-11-16T02:46:19.476Z,99411.41
2022-11-16T02:48:55.671Z,99410.81
2022-11-16T02:51:27.479Z,99418.66
2022-11-16T02:54:13.079Z,99413.94
2022-11-16T02:56:57.479Z,99415.94
2022-11-16T02:59:44.062Z,99418.94
2022-11-16T03:02:27.239Z,99424.75
2022-11-16T03:05:32.166Z,99431.00
2022-11-16T03:08:18.956Z,99421.34
2022-11-16T03:11:16.768Z,99414.22
2022-11-16T03:13:45.181Z,99433.88
2022-11-16T03:16:27.269Z,99423.91
2022-11-16T03:18:59.916Z,99440.97
2022-11-16T03:21:41.615Z,99428.47
2022-11-16T03:24:08.826Z,99432.16
2022-11-16T03:27:06.109Z,99425.91
2022-11-16T03:30:04.276Z,99411.84
2022-11-16T03:32:43.627Z,99420.22
2022-11-16T03:35:23.229Z,99432.75
2022-11-16T03:37:54.713Z,99423.06
2022-11-16T03:40:27.844Z,99422.22
2022-11-16T03:42:58.126Z,99433.31
2022-11-16T03:45:25.440Z,99436.16
2022-11-16T03:47:53.590Z,99441.00
2022-11-16T03:50:21.339Z,99434.19
2022-11-16T03:52:48.299Z,99446.72
2022-11-16T03:55:16.409Z,99439.91
2022-11-16T03:57:44.730Z,99438.47
2022-11-16T04:00:12.682Z,99446.00
2022-11-16T04:02:43.177Z,99449.72
2022-11-16T04:05:34.535Z,99456.97
2022-11-16T04:08:20.232Z,99471.44
2022-11-16T04:11:05.542Z,99467.91
2022-11-16T04:13:53.498Z,99473.59
2022-11-16T04:16:39.162Z,99473.72
2022-11-16T04:19:27.772Z,99466.91
2022-11-16T04:22:21.152Z,99470.00
2022-11-16T04:24:56.038Z,99470.59
2022-11-16T04:27:48.654Z,99477.41
2022-11-16T04:30:16.659Z,99478.97
2022-11-16T04:33:02.106Z,99469.72
2022-11-16T04:35:47.393Z,99465.00
2022-11-16T04:38:14.956Z,99465.41
2022-11-16T04:40:41.705Z,99465.72
2022-11-16T04:43:11.377Z,99465.00
2022-11-16T04:45:59.461Z,99471.63
2022-11-16T04:48:33.992Z,99480.00
2022-11-16T04:51:02.586Z,99488.09
2022-11-16T04:53:29.663Z,99491.50
2022-11-16T04:56:04.593Z,99492.34
2022-11-16T04:58:32.887Z,99494.78
2022-11-16T05:01:00.484Z,99500.09
2022-11-16T05:03:28.213Z,99501.03
2022-11-16T05:05:55.920Z,99506.44
2022-11-16T05:08:22.957Z,99503.63
2022-11-16T05:10:52.287Z,99500.81
2022-11-16T05:13:19.740Z,99510.72
2022-11-16T05:15:47.966Z,99514.16
2022-11-16T05:18:14.901Z,99515.72
2022-11-16T05:21:00.114Z,99514.88
2022-11-16T05:23:47.616Z,99512.31
2022-11-16T05:26:17.345Z,99524.47
2022-11-16T05:28:44.085Z,99518.50
2022-11-16T05:31:12.589Z,99518.50
2022-11-16T05:33:39.310Z,99517.63
2022-11-16T05:36:06.926Z,99520.47
2022-11-16T05:38:33.993Z,99515.34
2022-11-16T05:41:01.237Z,99517.34
2022-11-16T05:43:29.706Z,99522.72
2022-11-16T05:46:08.010Z,99522.16
2022-11-16T05:48:35.538Z,99523.56
2022-11-16T05:51:03.780Z,99521.53
2022-11-16T05:53:33.698Z,99515.81
2022-11-16T05:56:00.907Z,99505.59
2022-11-16T05:58:28.301Z,99507.09
2022-11-16T06:00:55.857Z,99504.78
2022-11-16T06:03:22.741Z,99508.63
2022-11-16T06:05:53.130Z,99503.75
2022-11-16T06:08:20.265Z,99517.66
2022-11-16T06:10:50.140Z,99520.72
2022-11-16T06:13:17.287Z,99520.41
2022-11-16T06:15:50.211Z,99521.81
2022-11-16T06:18:17.578Z,99526.31
2022-11-16T06:20:44.601Z,99527.44
2022-11-16T06:23:11.360Z,99539.47
2022-11-16T06:25:39.831Z,99540.00
2022-11-16T06:28:08.286Z,99542.25
2022-11-16T06:30:36.599Z,99543.59
2022-11-16T06:33:05.462Z,99539.44
2022-11-16T06:35:33.050Z,99544.53
2022-11-16T06:38:00.454Z,99546.47
2022-11-16T06:40:28.523Z,99559.50
2022-11-16T06:42:58.291Z,99553.63
2022-11-16T06:45:26.249Z,99559.97
2022-11-16T06:47:56.119Z,99559.50
2022-11-16T06:50:23.430Z,99567.84
2022-11-16T06:52:50.377Z,99573.25
2022-11-16T06:55:18.209Z,99572.50
2022-11-16T06:57:46.298Z,99570.78
2022-11-16T07:00:14.128Z,99575.44
2022-11-16T07:02:41.206Z,99575.69
2022-11-16T07:05:12.406Z,99586.84
2022-11-16T07:07:40.597Z,99587.22
2022-11-16T07:10:08.909Z,99577.56
2022-11-16T07:12:36.439Z,99581.22
2022-11-16T07:15:05.560Z,99591.16
2022-11-16T07:17:34.370Z,99594.09
2022-11-16T07:20:01.149Z,99584.31
2022-11-16T07:22:29.520Z,99593.13
2022-11-16T07:24:56.356Z,99594.97
2022-11-16T07:27:23.536Z,99599.47
2022-11-16T07:29:51.873Z,99595.06
2022-11-16T07:32:39.961Z,99596.78
2022-11-16T07:35:22.792Z,99600.19
2022-11-16T07:37:50.539Z,99605.56
2022-11-16T07:40:17.387Z,99608.16
2022-11-16T07:42:46.416Z,99610.72
2022-11-16T07:45:31.622Z,99609.88
2022-11-16T07:48:05.247Z,99623.44
2022-11-16T07:50:51.991Z,99618.31
2022-11-16T07:53:20.172Z,99622.00
2022-11-16T07:55:54.597Z,99621.72
2022-11-16T07:58:24.225Z,99625.19
2022-11-16T08:00:51.603Z,99626.88
2022-11-16T08:03:24.397Z,99629.81
2022-11-16T08:06:05.252Z,99634.94
2022-11-16T08:08:32.713Z,99636.56
2022-11-16T08:11:02.644Z,99639.81
2022-11-16T08:13:34.021Z,99641.44
2022-11-16T08:16:03.063Z,99634.94
2022-11-16T08:18:31.990Z,99643.72
2022-11-16T08:21:00.233Z,99643.72
2022-11-16T08:23:32.229Z,99646.91
2022-11-16T08:26:02.388Z,99645.06
2022-11-16T08:28:30.999Z,99648.38
2022-11-16T08:30:59.902Z,99649.97
2022-11-16T08:33:29.406Z,99655.22
2022-11-16T08:35:57.193Z,99641.50
2022-11-16T08:38:24.845Z,99640.53
2022-11-16T08:40:51.634Z,99640.28
2022-11-16T08:43:20.111Z,99645.41
2022-11-16T08:45:49.258Z,99646.88
2022-11-16T08:48:16.490Z,99651.03
2022-11-16T08:51:10.475Z,99656.41
2022-11-16T08:53:30.453Z,99656.91
2022-11-16T08:56:11.780Z,99666.66
2022-11-16T08:58:40.398Z,99665.69
2022-11-16T09:01:15.470Z,99667.75
2022-11-16T09:03:42.631Z,99668.34
2022-11-16T09:06:11.574Z,99670.03
2022-11-16T09:08:41.738Z,99674.94
2022-11-16T09:11:13.027Z,99676.41
2022-11-16T09:13:39.784Z,99678.84
2022-11-16T09:16:06.812Z,99675.28
2022-11-16T09:18:34.075Z,99676.75
2022-11-16T09:21:01.170Z,99679.31
2022-11-16T09:23:28.337Z,99678.19
2022-11-16T09:25:55.077Z,99681.88
2022-11-16T09:28:22.995Z,99675.63
2022-11-16T09:30:51.535Z,99673.94
2022-11-16T09:33:18.652Z,99674.84
2022-11-16T09:35:47.033Z,99670.91
2022-11-16T09:38:17.650Z,99676.03
2022-11-16T09:40:50.985Z,99670.53
2022-11-16T09:44:08.564Z,99673.38
2022-11-16T09:46:46.189Z,99677.25
2022-11-16T09:49:24.576Z,99680.13
2022-11-16T09:52:00.701Z,99676.41
2022-11-16T09:54:32.940Z,99682.28
2022-11-16T09:57:10.922Z,99689.78
2022-11-16T09:59:47.662Z,99693.28
2022-11-16T10:02:29.445Z,99684.50
2022-11-16T10:05:14.510Z,99671.72
2022-11-16T10:07:50.188Z,99683.97
2022-11-16T10:10:40.152Z,99683.69
2022-11-16T10:13:21.702Z,99678.16
2022-11-16T10:16:02.266Z,99694.63
2022-11-16T10:19:04.435Z,99696.19
2022-11-16T10:21:54.851Z,99688.47
2022-11-16T10:24:40.844Z,99688.78
2022-11-16T10:27:34.985Z,99691.19
2022-11-16T10:30:18.069Z,99689.63
2022-11-16T10:33:04.547Z,99674.56
2022-11-16T10:35:38.989Z,99687.94
2022-11-16T10:38:15.567Z,99683.69
2022-11-16T10:40:49.615Z,99680.81
2022-11-16T10:43:24.516Z,99682.00
2022-11-16T10:46:06.411Z,99678.00
2022-11-16T10:48:42.956Z,99684.00
2022-11-16T10:51:10.657Z,99682.59
2022-11-16T10:53:41.493Z,99680.56
2022-11-16T10:56:27.201Z,99677.16
2022-11-16T10:59:06.385Z,99677.84
2022-11-16T11:01:51.422Z,99675.97
2022-11-16T11:04:30.333Z,99676.41
2022-11-16T11:07:29.882Z,99665.00
2022-11-16T11:09:56.688Z,99663.19
2022-11-16T11:12:37.952Z,99674.72
2022-11-16T11:15:10.715Z,99673.03
2022-11-16T11:17:40.936Z,99671.94
2022-11-16T11:20:24.337Z,99668.00
2022-11-16T11:22:55.479Z,99670.13
2022-11-16T11:25:38.562Z,99661.06
2022-11-16T11:28:21.221Z,99661.38
2022-11-16T11:31:01.807Z,99667.69
2022-11-16T11:33:48.227Z,99662.84
2022-11-16T11:36:35.347Z,99667.03
2022-11-16T11:39:25.242Z,99657.56
2022-11-16T11:42:23.192Z,99656.47
2022-11-16T11:45:04.570Z,99650.22
2022-11-16T11:48:01.195Z,99643.13
2022-11-16T11:50:45.319Z,99638.06
2022-11-16T11:53:30.516Z,99640.72
2022-11-16T11:55:59.787Z,99646.31
2022-11-16T11:58:33.045Z,99650.22
2022-11-16T12:01:33.221Z,99650.28
2022-11-16T12:04:33.417Z,99650.88
2022-11-16T12:07:20.309Z,99648.59
2022-11-16T12:10:23.991Z,99642.47
2022-11-16T12:12:53.715Z,99645.03
2022-11-16T12:15:31.732Z,99625.34
2022-11-16T12:18:31.765Z,99630.91
2022-11-16T12:21:14.828Z,99630.66
2022-11-16T12:23:55.084Z,99623.22
2022-11-16T12:26:58.587Z,99612.31
2022-11-16T12:29:45.040Z,99608.19
2022-11-16T12:32:41.423Z,99606.09
2022-11-16T12:35:26.827Z,99602.09
2022-11-16T12:38:31.070Z,99602.41
2022-11-16T12:41:28.874Z,99590.72
2022-11-16T12:44:05.373Z,99599.91
2022-11-16T12:47:02.614Z,99585.97
2022-11-16T12:49:45.737Z,99584.50
2022-11-16T12:52:43.441Z,99581.97
2022-11-16T12:55:26.460Z,99579.38
2022-11-16T12:58:30.589Z,99576.19
2022-11-16T13:01:29.563Z,99568.88
2022-11-16T13:04:11.163Z,99564.94
2022-11-16T13:07:14.994Z,99561.22
2022-11-16T13:09:51.227Z,99564.44
2022-11-16T13:12:23.466Z,99565.03
2022-11-16T13:14:55.516Z,99561.19
2022-11-16T13:17:34.800Z,99565.09
2022-11-16T13:20:29.212Z,99556.69
2022-11-16T13:23:18.947Z,99559.75
2022-11-16T13:26:28.125Z,99564.50
2022-11-16T13:29:03.297Z,99558.41
2022-11-16T13:31:51.394Z,99557.84
2022-11-16T13:34:42.544Z,99561.19
2022-11-16T13:37:37.011Z,99548.31
2022-11-16T13:40:04.524Z,99559.16
2022-11-16T13:43:15.931Z,99556.66
2022-11-16T13:45:57.138Z,99552.16
2022-11-16T13:48:35.503Z,99550.47
2022-11-16T13:51:18.223Z,99546.91
2022-11-16T13:54:43.326Z,99550.44
2022-11-16T13:56:51.401Z,99547.03
2022-11-16T13:59:30.051Z,99560.63
2022-11-16T14:02:01.679Z,99552.06
2022-11-16T14:04:34.259Z,99544.63
2022-11-16T14:07:01.348Z,99535.22
2022-11-16T14:09:51.591Z,99545.41
2022-11-16T14:12:51.786Z,99542.50
2022-11-16T14:15:36.722Z,99538.47
2022-11-16T14:18:09.395Z,99542.66
2022-11-16T14:21:04.851Z,99540.09
2022-11-16T14:23:38.610Z,99533.75
2022-11-16T14:26:48.920Z,99532.53
2022-11-16T14:29:55.727Z,99529.13
2022-11-16T14:32:28.785Z,99522.28
2022-11-16T14:34:59.184Z,99520.56
2022-11-16T14:37:28.198Z,99517.47
2022-11-16T14:40:06.912Z,99506.56
2022-11-16T14:43:10.021Z,99503.09
2022-11-16T14:45:38.988Z,99502.69
2022-11-16T14:48:16.355Z,99506.88
2022-11-16T14:50:47.756Z,99495.81
2022-11-16T14:53:19.668Z,99495.72
2022-11-16T14:55:46.494Z,99494.91
2022-11-16T14:58:22.879Z,99494.56
2022-11-16T15:01:02.095Z,99496.56
2022-11-16T15:03:38.991Z,99488.34
2022-11-16T15:06:08.124Z,99484.53
2022-11-16T15:08:48.893Z,99475.31
2022-11-16T15:11:51.805Z,99463.69
2022-11-16T15:14:25.391Z,99467.13
2022-11-16T15:16:56.179Z,99466.50
2022-11-16T15:19:24.143Z,99469.25
2022-11-16T15:21:52.223Z,99449.06
2022-11-16T15:24:32.794Z,99450.78
2022-11-16T15:27:32.174Z,99445.38
2022-11-16T15:30:03.989Z,99455.97
2022-11-16T15:32:37.936Z,99454.97
2022-11-16T15:35:05.887Z,99434.94
2022-11-16T15:37:32.723Z,99425.84
2022-11-16T15:40:02.493Z,99417.06
2022-11-16T15:42:29.793Z,99417.09
2022-11-16T15:45:12.876Z,99443.84
2022-11-16T15:47:45.414Z,99443.00
2022-11-16T15:50:19.348Z,99443.00
2022-11-16T15:52:55.416Z,99444.13
2022-11-16T15:55:39.147Z,99437.88
2022-11-16T15:58:18.503Z,99430.94
2022-11-16T16:00:48.974Z,99420.69
2022-11-16T16:03:27.298Z,99424.81
2022-11-16T16:05:55.903Z,99417.16
2022-11-16T16:08:37.765Z,99407.78
2022-11-16T16:11:27.247Z,99407.50
2022-11-16T16:14:03.560Z,99396.69
2022-11-16T16:16:39.263Z,99396.41
2022-11-16T16:19:42.527Z,99396.13
2022-11-16T16:22:28.635Z,99392.13
2022-11-16T16:24:55.809Z,99389.00
2022-11-16T16:27:25.825Z,99382.47
2022-11-16T16:29:57.744Z,99377.50
2022-11-16T16:32:33.256Z,99378.88
2022-11-16T16:35:04.111Z,99373.91
2022-11-16T16:37:33.164Z,99378.72
2022-11-16T16:40:00.341Z,99374.59
2022-11-16T16:42:27.476Z,99369.47
2022-11-16T16:44:54.435Z,99367.09
2022-11-16T16:47:21.263Z,99366.38
2022-11-16T16:49:49.383Z,99369.59
2022-11-16T16:52:17.263Z,99370.75
2022-11-16T16:54:44.352Z,99368.63
2022-11-16T16:57:18.809Z,99369.72
2022-11-16T16:59:48.147Z,99361.91
2022-11-16T17:02:16.345Z,99360.47
2022-11-16T17:04:44.071Z,99352.25
2022-11-16T17:07:11.096Z,99350.56
2022-11-16T17:09:37.971Z,99351.69
2022-11-16T17:12:05.191Z,99341.16
2022-11-16T17:14:32.069Z,99332.50
2022-11-16T17:17:01.461Z,99328.97
2022-11-16T17:19:29.531Z,99330.94
2022-11-16T17:21:56.435Z,99328.97
2022-11-16T17:24:23.198Z,99335.34
2022-11-16T17:26:50.564Z,99332.66
2022-11-16T17:29:17.357Z,99332.66
2022-11-16T17:31:47.601Z,99332.66
2022-11-16T17:34:14.667Z,99330.09
2022-11-16T17:36:43.205Z,99321.88
2022-11-16T17:39:10.016Z,99328.97
2022-11-16T17:41:36.942Z,99323.56
2022-11-16T17:44:04.475Z,99320.75
2022-11-16T17:46:31.288Z,99315.47
2022-11-16T17:48:58.070Z,99307.25
2022-11-16T17:51:26.278Z,99300.00
2022-11-16T17:53:53.359Z,99299.16
2022-11-16T17:56:23.646Z,99291.22
2022-11-16T17:58:52.098Z,99294.91
2022-11-16T18:01:19.346Z,99297.75
2022-11-16T18:03:46.121Z,99300.56
2022-11-16T18:06:22.376Z,99305.25
2022-11-16T18:08:49.532Z,99307.97
2022-11-16T18:11:20.003Z,99297.44
2022-11-16T18:13:48.211Z,99294.03
2022-11-16T18:16:19.018Z,99305.78
2022-11-16T18:18:48.009Z,99310.22
2022-11-16T18:21:20.620Z,99309.63
2022-11-16T18:23:48.441Z,99310.47
2022-11-16T18:26:21.035Z,99314.19
2022-11-16T18:28:49.541Z,99307.06
2022-11-16T18:31:23.142Z,99300.97
2022-11-16T18:33:51.070Z,99301.22
2022-11-16T18:36:20.514Z,99304.22
2022-11-16T18:38:47.630Z,99293.72
2022-11-16T18:41:14.328Z,99296.41
2022-11-16T18:43:54.347Z,99297.38
2022-11-16T18:46:27.523Z,99304.75
2022-11-16T18:48:56.013Z,99301.06
2022-11-16T18:51:27.038Z,99297.38
2022-11-16T18:53:53.863Z,99295.69
2022-11-16T18:56:21.384Z,99292.88
2022-11-16T18:58:51.488Z,99284.66
2022-11-16T19:01:22.343Z,99286.19
2022-11-16T19:03:49.987Z,99279.84
2022-11-16T19:06:17.892Z,99276.97
2022-11-16T19:08:53.682Z,99255.16
2022-11-16T19:11:23.328Z,99250.47
2022-11-16T19:13:55.686Z,99251.47
2022-11-16T19:16:24.203Z,99243.22
2022-11-16T19:18:51.120Z,99241.53
2022-11-16T19:21:18.836Z,99235.31
2022-11-16T19:23:49.037Z,99233.59
2022-11-16T19:26:18.320Z,99223.81
2022-11-16T19:28:50.065Z,99223.66
2022-11-16T19:31:22.301Z,99219.13
2022-11-16T19:33:53.647Z,99211.75
2022-11-16T19:36:21.073Z,99212.88
2022-11-16T19:38:49.058Z,99201.25
2022-11-16T19:41:20.136Z,99190.72
2022-11-16T19:43:47.312Z,99189.19
2022-11-16T19:46:16.951Z,99183.94
2022-11-16T19:48:45.918Z,99178.53
2022-11-16T19:51:21.576Z,99174.88
2022-11-16T19:53:48.893Z,99167.75
2022-11-16T19:56:19.047Z,99153.56
2022-11-16T19:58:46.839Z,99149.91
2022-11-16T20:01:23.636Z,99142.78
2022-11-16T20:03:50.941Z,99147.22
2022-11-16T20:06:24.524Z,99139.13
2022-11-16T20:08:55.778Z,99122.97
2022-11-16T20:11:28.610Z,99117.56
2022-11-16T20:13:58.165Z,99112.19
2022-11-16T20:16:28.381Z,99106.78
2022-11-16T20:18:55.584Z,99107.63
2022-11-16T20:21:29.444Z,99099.41
2022-11-16T20:24:01.569Z,99091.31
2022-11-16T20:26:34.697Z,99097.41
2022-11-16T20:29:01.648Z,99092.03
2022-11-16T20:31:31.276Z,99078.28
2022-11-16T20:34:01.691Z,99068.19
2022-11-16T20:36:31.268Z,99075.28
2022-11-16T20:38:59.702Z,99079.69
2022-11-16T20:41:32.253Z,99071.28
2022-11-16T20:44:02.511Z,99072.31
2022-11-16T20:46:33.331Z,99068.44
2022-11-16T20:49:03.407Z,99069.31
2022-11-16T20:51:30.577Z,99067.47
2022-11-16T20:53:57.979Z,99058.22
2022-11-16T20:56:24.762Z,99047.44
2022-11-16T20:58:51.627Z,99058.94
2022-11-16T21:01:31.475Z,99046.34
2022-11-16T21:04:01.908Z,99048.84
2022-11-16T21:06:29.379Z,99043.47
2022-11-16T21:08:56.654Z,99036.38
2022-11-16T21:11:29.019Z,99029.28
2022-11-16T21:14:14.981Z,99029.28
2022-11-16T21:16:42.134Z,99018.50
2022-11-16T21:19:09.618Z,99014.81
2022-11-16T21:21:37.953Z,98998.66
2022-11-16T21:24:04.939Z,98993.97
2022-11-16T21:26:33.777Z,98985.03
2022-11-16T21:29:02.072Z,98982.19
2022-11-16T21:31:34.907Z,98982.19
2022-11-16T21:34:02.307Z,98973.09
2022-11-16T21:36:31.917Z,98971.09
2022-11-16T21:39:00.135Z,98966.56
2022-11-16T21:41:28.139Z,98974.50
2022-11-16T21:43:55.302Z,98958.31
2022-11-16T21:46:26.650Z,98967.13
2022-11-16T21:48:56.441Z,98952.91
2022-11-16T21:51:27.009Z,98942.13
2022-11-16T21:53:54.384Z,98937.75
2022-11-16T21:56:26.239Z,98939.44
2022-11-16T21:58:54.196Z,98943.84
2022-11-16T22:01:23.016Z,98932.66
2022-11-16T22:04:10.081Z,98922.06
2022-11-16T22:06:55.558Z,98921.84
2022-11-16T22:09:22.466Z,98913.22
2022-11-16T22:11:49.253Z,98907.84
2022-11-16T22:14:15.992Z,98894.13
2022-11-16T22:16:42.782Z,98890.03
2022-11-16T22:19:09.550Z,98880.84
2022-11-16T22:21:36.267Z,98870.34
2022-11-16T22:24:03.109Z,98859.84
2022-11-16T22:26:29.873Z,98848.38
2022-11-16T22:28:58.347Z,98836.06
2022-11-16T22:31:25.209Z,98831.81
2022-11-16T22:33:53.696Z,98820.34
2022-11-16T22:36:20.616Z,98804.31
2022-11-16T22:38:47.348Z,98806.03
2022-11-16T22:41:14.091Z,98796.41
2022-11-16T22:43:40.976Z,98781.94
2022-11-16T22:46:07.986Z,98775.72
2022-11-16T22:48:40.096Z,98769.31
2022-11-16T22:51:20.106Z,98758.72
2022-11-16T22:53:47.596Z,98760.41
2022-11-16T22:56:14.399Z,98748.81
2022-11-16T22:58:41.244Z,98739.88
2022-11-16T23:01:09.350Z,98737.19
2022-11-16T23:03:37.673Z,98726.44
2022-11-16T23:06:05.888Z,98718.34
2022-11-16T23:08:35.089Z,98706.56
2022-11-16T23:11:29.469Z,98701.19
2022-11-16T23:14:14.785Z,98700.22
2022-11-16T23:16:43.161Z,98688.75
2022-11-16T23:19:31.765Z,98670.59
2022-11-16T23:22:17.459Z,98661.81
2022-11-16T23:25:03.756Z,98650.03
2022-11-16T23:28:00.274Z,98649.19
2022-11-16T23:30:27.516Z,98638.44
2022-11-16T23:32:54.871Z,98628.38
2022-11-16T23:35:23.025Z,98635.75
2022-11-16T23:38:03.848Z,98620.44
2022-11-16T23:40:34.617Z,98611.19
2022-11-16T23:43:20.500Z,98609.22
2022-11-16T23:45:47.637Z,98594.91
2022-11-16T23:48:17.191Z,98581.44
2022-11-16T23:50:45.900Z,98573.38
2022-11-16T23:53:13.610Z,98567.97
2022-11-16T23:55:41.140Z,98561.47
2022-11-16T23:58:14.468Z,98544.97
